sensor_id;sensor_type;location;lat;lon;timestamp;pressure;altitude;pressure_sealevel;temperature;humidity
32131;BME280;18639;50.716;7.086;2024-03-08T00:00:18;100524.44;;;4.64;100.00
32131;BME280;18639;50.716;7.086;2024-03-08T00:02:44;100562.03;;;4.86;100.00
32131;BME280;18639;50.716;7.086;2024-03-08T00:05:11;100543.28;;;4.85;100.00
32131;BME280;18639;50.716;7.086;2024-03-08T00:07:40;100548.41;;;4.85;100.00
32131;BME280;18639;50.716;7.086;2024-03-08T00:10:07;100548.00;;;4.73;100.00
32131;BME280;18639;50.716;7.086;2024-03-08T00:12:43;100524.66;;;4.58;100.00
32131;BME280;18639;50.716;7.086;2024-03-08T00:15:14;100546.47;;;4.69;100.00
32131;BME280;18639;50.716;7.086;2024-03-08T00:17:40;100542.38;;;4.64;100.00
32131;BME280;18639;50.716;7.086;2024-03-08T00:20:06;100530.00;;;4.52;100.00
32131;BME280;18639;50.716;7.086;2024-03-08T00:22:37;100535.78;;;4.57;100.00
32131;BME280;18639;50.716;7.086;2024-03-08T00:25:04;100521.88;;;4.41;100.00
32131;BME280;18639;50.716;7.086;2024-03-08T00:27:29;100508.78;;;4.27;100.00
32131;BME280;18639;50.716;7.086;2024-03-08T00:29:57;100522.09;;;4.35;100.00
32131;BME280;18639;50.716;7.086;2024-03-08T00:32:23;100522.06;;;4.37;100.00
32131;BME280;18639;50.716;7.086;2024-03-08T00:34:55;100525.94;;;4.47;100.00
32131;BME280;18639;50.716;7.086;2024-03-08T00:37:21;100509.53;;;4.29;100.00
32131;BME280;18639;50.716;7.086;2024-03-08T00:39:50;100513.72;;;4.32;100.00
32131;BME280;18639;50.716;7.086;2024-03-08T00:42:16;100529.44;;;4.44;100.00
32131;BME280;18639;50.716;7.086;2024-03-08T00:44:42;100501.88;;;4.29;100.00
32131;BME280;18639;50.716;7.086;2024-03-08T00:47:07;100515.06;;;4.42;100.00
32131;BME280;18639;50.716;7.086;2024-03-08T00:49:32;100513.34;;;4.42;100.00
32131;BME280;18639;50.716;7.086;2024-03-08T00:51:58;100499.88;;;4.37;100.00
32131;BME280;18639;50.716;7.086;2024-03-08T00:54:23;100504.66;;;4.46;100.00
32131;BME280;18639;50.716;7.086;2024-03-08T00:56:48;100492.75;;;4.45;100.00
32131;BME280;18639;50.716;7.086;2024-03-08T00:59:14;100504.78;;;4.43;100.00
32131;BME280;18639;50.716;7.086;2024-03-08T01:01:40;100500.63;;;4.39;100.00
32131;BME280;18639;50.716;7.086;2024-03-08T01:04:05;100505.09;;;4.34;100.00
32131;BME280;18639;50.716;7.086;2024-03-08T01:06:32;100486.75;;;4.23;100.00
32131;BME280;18639;50.716;7.086;2024-03-08T01:08:57;100468.50;;;4.09;100.00
32131;BME280;18639;50.716;7.086;2024-03-08T01:11:22;100494.31;;;4.26;100.00
32131;BME280;18639;50.716;7.086;2024-03-08T01:13:47;100450.75;;;4.06;100.00
32131;BME280;18639;50.716;7.086;2024-03-08T01:16:13;100480.13;;;4.17;100.00
32131;BME280;18639;50.716;7.086;2024-03-08T01:18:38;100483.41;;;4.21;100.00
32131;BME280;18639;50.716;7.086;2024-03-08T01:21:04;100469.63;;;4.25;100.00
32131;BME280;18639;50.716;7.086;2024-03-08T01:23:29;100466.28;;;4.23;100.00
32131;BME280;18639;50.716;7.086;2024-03-08T01:25:55;100452.06;;;4.16;100.00
32131;BME280;18639;50.716;7.086;2024-03-08T01:28:25;100456.53;;;4.11;100.00
32131;BME280;18639;50.716;7.086;2024-03-08T01:30:51;100468.16;;;4.18;100.00
32131;BME280;18639;50.716;7.086;2024-03-08T01:33:24;100459.66;;;4.17;100.00
32131;BME280;18639;50.716;7.086;2024-03-08T01:35:51;100438.63;;;4.11;100.00
32131;BME280;18639;50.716;7.086;2024-03-08T01:38:16;100461.78;;;4.30;100.00
32131;BME280;18639;50.716;7.086;2024-03-08T01:40:41;100444.16;;;4.22;100.00
32131;BME280;18639;50.716;7.086;2024-03-08T01:45:42;100452.00;;;4.17;100.00
32131;BME280;18639;50.716;7.086;2024-03-08T01:48:08;100416.81;;;4.01;100.00
32131;BME280;18639;50.716;7.086;2024-03-08T01:50:33;100420.94;;;4.05;100.00
32131;BME280;18639;50.716;7.086;2024-03-08T01:52:59;100403.50;;;3.93;100.00
32131;BME280;18639;50.716;7.086;2024-03-08T01:55:25;100420.94;;;4.05;100.00
32131;BME280;18639;50.716;7.086;2024-03-08T01:57:51;100424.47;;;4.01;100.00
32131;BME280;18639;50.716;7.086;2024-03-08T02:00:17;100407.22;;;3.84;100.00
32131;BME280;18639;50.716;7.086;2024-03-08T02:02:45;100427.16;;;3.98;100.00
32131;BME280;18639;50.716;7.086;2024-03-08T02:05:12;100411.28;;;3.90;100.00
32131;BME280;18639;50.716;7.086;2024-03-08T02:07:41;100410.53;;;3.86;100.00
32131;BME280;18639;50.716;7.086;2024-03-08T02:10:09;100392.97;;;3.54;100.00
32131;BME280;18639;50.716;7.086;2024-03-08T02:12:34;100407.03;;;3.65;100.00
32131;BME280;18639;50.716;7.086;2024-03-08T02:15:00;100409.88;;;3.58;100.00
32131;BME280;18639;50.716;7.086;2024-03-08T02:17:25;100431.03;;;3.61;100.00
32131;BME280;18639;50.716;7.086;2024-03-08T02:19:51;100415.41;;;3.46;100.00
32131;BME280;18639;50.716;7.086;2024-03-08T02:22:16;100410.28;;;3.46;100.00
32131;BME280;18639;50.716;7.086;2024-03-08T02:24:41;100411.41;;;3.37;100.00
32131;BME280;18639;50.716;7.086;2024-03-08T02:27:07;100404.28;;;3.22;100.00
32131;BME280;18639;50.716;7.086;2024-03-08T02:29:33;100410.13;;;3.25;100.00
32131;BME280;18639;50.716;7.086;2024-03-08T02:31:59;100415.28;;;3.24;100.00
32131;BME280;18639;50.716;7.086;2024-03-08T02:34:24;100400.22;;;3.16;100.00
32131;BME280;18639;50.716;7.086;2024-03-08T02:36:50;100400.22;;;3.16;100.00
32131;BME280;18639;50.716;7.086;2024-03-08T02:39:15;100391.81;;;3.13;100.00
32131;BME280;18639;50.716;7.086;2024-03-08T02:41:41;100390.16;;;3.12;100.00
32131;BME280;18639;50.716;7.086;2024-03-08T02:44:07;100373.38;;;3.05;100.00
32131;BME280;18639;50.716;7.086;2024-03-08T02:46:32;100375.19;;;3.01;100.00
32131;BME280;18639;50.716;7.086;2024-03-08T02:48:58;100398.59;;;3.14;100.00
32131;BME280;18639;50.716;7.086;2024-03-08T02:51:23;100326.97;;;2.67;100.00
32131;BME280;18639;50.716;7.086;2024-03-08T02:53:50;100397.13;;;3.07;100.00
32131;BME280;18639;50.716;7.086;2024-03-08T02:56:16;100386.34;;;2.99;100.00
32131;BME280;18639;50.716;7.086;2024-03-08T02:58:42;100398.44;;;2.93;100.00
32131;BME280;18639;50.716;7.086;2024-03-08T03:01:08;100381.53;;;2.89;100.00
32131;BME280;18639;50.716;7.086;2024-03-08T03:03:33;100390.84;;;2.90;100.00
32131;BME280;18639;50.716;7.086;2024-03-08T03:05:58;100380.16;;;2.79;100.00
32131;BME280;18639;50.716;7.086;2024-03-08T03:08:24;100393.53;;;2.87;100.00
32131;BME280;18639;50.716;7.086;2024-03-08T03:10:49;100370.84;;;2.78;100.00
32131;BME280;18639;50.716;7.086;2024-03-08T03:13:14;100385.94;;;2.84;100.00
32131;BME280;18639;50.716;7.086;2024-03-08T03:15:40;100390.97;;;2.87;100.00
32131;BME280;18639;50.716;7.086;2024-03-08T03:18:08;100370.84;;;2.78;100.00
32131;BME280;18639;50.716;7.086;2024-03-08T03:20:33;100373.19;;;2.84;100.00
32131;BME280;18639;50.716;7.086;2024-03-08T03:23:05;100365.66;;;2.81;100.00
32131;BME280;18639;50.716;7.086;2024-03-08T03:25:33;100357.31;;;2.76;100.00
32131;BME280;18639;50.716;7.086;2024-03-08T03:28:00;100374.06;;;2.83;100.00
32131;BME280;18639;50.716;7.086;2024-03-08T03:30:25;100353.25;;;2.71;100.00
32131;BME280;18639;50.716;7.086;2024-03-08T03:32:52;100361.13;;;2.63;100.00
32131;BME280;18639;50.716;7.086;2024-03-08T03:35:20;100380.97;;;2.81;100.00
32131;BME280;18639;50.716;7.086;2024-03-08T03:37:46;100353.09;;;2.75;100.00
32131;BME280;18639;50.716;7.086;2024-03-08T03:40:29;100343.56;;;2.80;100.00
32131;BME280;18639;50.716;7.086;2024-03-08T03:42:55;100358.47;;;2.92;100.00
32131;BME280;18639;50.716;7.086;2024-03-08T03:45:20;100372.75;;;2.98;100.00
32131;BME280;18639;50.716;7.086;2024-03-08T03:47:46;100367.50;;;3.03;100.00
32131;BME280;18639;50.716;7.086;2024-03-08T03:50:11;100363.94;;;3.07;100.00
32131;BME280;18639;50.716;7.086;2024-03-08T03:52:37;100357.28;;;3.03;100.00
32131;BME280;18639;50.716;7.086;2024-03-08T03:55:02;100347.72;;;3.09;100.00
32131;BME280;18639;50.716;7.086;2024-03-08T03:57:29;100354.34;;;3.15;100.00
32131;BME280;18639;50.716;7.086;2024-03-08T03:59:55;100358.44;;;3.19;100.00
32131;BME280;18639;50.716;7.086;2024-03-08T04:02:20;100350.09;;;3.14;100.00
32131;BME280;18639;50.716;7.086;2024-03-08T04:04:46;100349.94;;;3.18;100.00
32131;BME280;18639;50.716;7.086;2024-03-08T04:07:12;100344.31;;;3.09;100.00
32131;BME280;18639;50.716;7.086;2024-03-08T04:09:37;100324.28;;;2.98;100.00
32131;BME280;18639;50.716;7.086;2024-03-08T04:12:02;100310.09;;;2.89;100.00
32131;BME280;18639;50.716;7.086;2024-03-08T04:14:28;100325.09;;;2.99;100.00
32131;BME280;18639;50.716;7.086;2024-03-08T04:16:53;100339.06;;;3.13;100.00
32131;BME280;18639;50.716;7.086;2024-03-08T04:19:18;100342.31;;;3.17;100.00
32131;BME280;18639;50.716;7.086;2024-03-08T04:21:44;100324.81;;;3.06;100.00
32131;BME280;18639;50.716;7.086;2024-03-08T04:24:09;100349.81;;;3.21;100.00
32131;BME280;18639;50.716;7.086;2024-03-08T04:26:35;100346.66;;;3.15;100.00
32131;BME280;18639;50.716;7.086;2024-03-08T04:29:01;100341.56;;;3.15;100.00
32131;BME280;18639;50.716;7.086;2024-03-08T04:31:26;100328.38;;;3.02;100.00
32131;BME280;18639;50.716;7.086;2024-03-08T04:33:52;100327.50;;;3.03;100.00
32131;BME280;18639;50.716;7.086;2024-03-08T04:36:17;100321.75;;;2.96;100.00
32131;BME280;18639;50.716;7.086;2024-03-08T04:38:42;100323.22;;;3.04;100.00
32131;BME280;18639;50.716;7.086;2024-03-08T04:41:08;100334.31;;;3.03;100.00
32131;BME280;18639;50.716;7.086;2024-03-08T04:43:34;100303.75;;;2.76;100.00
32131;BME280;18639;50.716;7.086;2024-03-08T04:45:59;100312.94;;;2.80;100.00
32131;BME280;18639;50.716;7.086;2024-03-08T04:48:25;100341.50;;;2.91;100.00
32131;BME280;18639;50.716;7.086;2024-03-08T04:50:52;100316.28;;;2.82;100.00
32131;BME280;18639;50.716;7.086;2024-03-08T04:53:18;100310.50;;;2.77;100.00
32131;BME280;18639;50.716;7.086;2024-03-08T04:55:44;100316.38;;;2.79;100.00
32131;BME280;18639;50.716;7.086;2024-03-08T04:58:12;100312.16;;;2.78;100.00
32131;BME280;18639;50.716;7.086;2024-03-08T05:00:37;100317.13;;;2.83;100.00
32131;BME280;18639;50.716;7.086;2024-03-08T05:03:03;100320.50;;;2.83;100.00
32131;BME280;18639;50.716;7.086;2024-03-08T05:05:29;100311.41;;;2.76;100.00
32131;BME280;18639;50.716;7.086;2024-03-08T05:07:55;100283.09;;;2.58;100.00
32131;BME280;18639;50.716;7.086;2024-03-08T05:10:20;100309.91;;;2.69;100.00
32131;BME280;18639;50.716;7.086;2024-03-08T05:12:46;100303.25;;;2.65;100.00
32131;BME280;18639;50.716;7.086;2024-03-08T05:15:11;100311.47;;;2.73;100.00
32131;BME280;18639;50.716;7.086;2024-03-08T05:17:37;100256.59;;;2.37;100.00
32131;BME280;18639;50.716;7.086;2024-03-08T05:20:02;100284.81;;;2.57;100.00
32131;BME280;18639;50.716;7.086;2024-03-08T05:22:29;100309.91;;;2.69;100.00
32131;BME280;18639;50.716;7.086;2024-03-08T05:24:54;100282.47;;;2.51;100.00
32131;BME280;18639;50.716;7.086;2024-03-08T05:27:19;100290.66;;;2.61;100.00
32131;BME280;18639;50.716;7.086;2024-03-08T05:29:44;100281.69;;;2.49;100.00
32131;BME280;18639;50.716;7.086;2024-03-08T05:32:11;100291.78;;;2.52;100.00
32131;BME280;18639;50.716;7.086;2024-03-08T05:34:37;100273.66;;;2.35;100.00
32131;BME280;18639;50.716;7.086;2024-03-08T05:37:02;100294.53;;;2.46;100.00
32131;BME280;18639;50.716;7.086;2024-03-08T05:39:28;100300.53;;;2.45;100.00
32131;BME280;18639;50.716;7.086;2024-03-08T05:41:53;100269.03;;;2.20;100.00
32131;BME280;18639;50.716;7.086;2024-03-08T05:44:20;100289.16;;;2.29;100.00
32131;BME280;18639;50.716;7.086;2024-03-08T05:46:45;100288.16;;;2.33;100.00
32131;BME280;18639;50.716;7.086;2024-03-08T05:49:14;100301.44;;;2.42;100.00
32131;BME280;18639;50.716;7.086;2024-03-08T05:51:40;100293.84;;;2.41;100.00
32131;BME280;18639;50.716;7.086;2024-03-08T05:54:10;100302.41;;;2.40;100.00
32131;BME280;18639;50.716;7.086;2024-03-08T05:56:36;100269.72;;;2.25;100.00
32131;BME280;18639;50.716;7.086;2024-03-08T05:59:03;100293.84;;;2.41;100.00
32131;BME280;18639;50.716;7.086;2024-03-08T06:01:29;100285.41;;;2.39;100.00
32131;BME280;18639;50.716;7.086;2024-03-08T06:03:55;100286.16;;;2.42;100.00
32131;BME280;18639;50.716;7.086;2024-03-08T06:06:25;100266.00;;;2.35;100.00
32131;BME280;18639;50.716;7.086;2024-03-08T06:08:50;100260.16;;;2.31;100.00
32131;BME280;18639;50.716;7.086;2024-03-08T06:11:17;100230.22;;;2.11;100.00
32131;BME280;18639;50.716;7.086;2024-03-08T06:13:44;100254.91;;;2.36;100.00
32131;BME280;18639;50.716;7.086;2024-03-08T06:16:09;100270.75;;;2.45;100.00
32131;BME280;18639;50.716;7.086;2024-03-08T06:18:35;100284.19;;;2.50;100.00
32131;BME280;18639;50.716;7.086;2024-03-08T06:21:04;100274.84;;;2.51;100.00
32131;BME280;18639;50.716;7.086;2024-03-08T06:23:41;100281.16;;;2.39;100.00
32131;BME280;18639;50.716;7.086;2024-03-08T06:26:07;100269.13;;;2.43;100.00
32131;BME280;18639;50.716;7.086;2024-03-08T06:28:33;100283.38;;;2.50;100.00
32131;BME280;18639;50.716;7.086;2024-03-08T06:31:00;100276.47;;;2.52;100.00
32131;BME280;18639;50.716;7.086;2024-03-08T06:33:25;100270.34;;;2.58;100.00
32131;BME280;18639;50.716;7.086;2024-03-08T06:35:54;100267.50;;;2.67;100.00
32131;BME280;18639;50.716;7.086;2024-03-08T06:38:25;100259.06;;;2.65;100.00
32131;BME280;18639;50.716;7.086;2024-03-08T06:40:51;100267.44;;;2.68;100.00
32131;BME280;18639;50.716;7.086;2024-03-08T06:43:17;100268.78;;;2.78;100.00
32131;BME280;18639;50.716;7.086;2024-03-08T06:45:44;100233.66;;;2.62;100.00
32131;BME280;18639;50.716;7.086;2024-03-08T06:48:18;100261.13;;;2.78;100.00
32131;BME280;18639;50.716;7.086;2024-03-08T06:50:46;100267.66;;;2.87;100.00
32131;BME280;18639;50.716;7.086;2024-03-08T06:53:13;100267.50;;;2.91;100.00
32131;BME280;18639;50.716;7.086;2024-03-08T06:55:38;100255.91;;;2.83;100.00
32131;BME280;18639;50.716;7.086;2024-03-08T06:58:04;100253.41;;;2.81;100.00
32131;BME280;18639;50.716;7.086;2024-03-08T07:00:29;100262.94;;;3.00;100.00
32131;BME280;18639;50.716;7.086;2024-03-08T07:02:56;100256.13;;;3.00;100.00
32131;BME280;18639;50.716;7.086;2024-03-08T07:05:22;100253.53;;;3.02;100.00
32131;BME280;18639;50.716;7.086;2024-03-08T07:07:50;100249.88;;;3.09;100.00
32131;BME280;18639;50.716;7.086;2024-03-08T07:10:16;100247.66;;;3.23;100.00
32131;BME280;18639;50.716;7.086;2024-03-08T07:12:42;100230.22;;;3.11;100.00
32131;BME280;18639;50.716;7.086;2024-03-08T07:15:07;100258.19;;;3.37;100.00
32131;BME280;18639;50.716;7.086;2024-03-08T07:17:33;100255.38;;;3.45;100.00
32131;BME280;18639;50.716;7.086;2024-03-08T07:20:00;100229.97;;;3.42;100.00
32131;BME280;18639;50.716;7.086;2024-03-08T07:22:32;100242.59;;;3.68;100.00
32131;BME280;18639;50.716;7.086;2024-03-08T07:24:57;100226.19;;;3.73;100.00
32131;BME280;18639;50.716;7.086;2024-03-08T07:27:41;100250.53;;;4.04;100.00
32131;BME280;18639;50.716;7.086;2024-03-08T07:30:07;100253.28;;;4.21;100.00
32131;BME280;18639;50.716;7.086;2024-03-08T07:32:35;100223.34;;;4.23;100.00
32131;BME280;18639;50.716;7.086;2024-03-08T07:35:00;100233.63;;;4.43;100.00
32131;BME280;18639;50.716;7.086;2024-03-08T07:37:27;100207.84;;;4.48;100.00
32131;BME280;18639;50.716;7.086;2024-03-08T07:39:52;100240.50;;;4.82;100.00
32131;BME280;18639;50.716;7.086;2024-03-08T07:42:17;100229.47;;;5.00;100.00
32131;BME280;18639;50.716;7.086;2024-03-08T07:44:42;100215.88;;;5.18;100.00
32131;BME280;18639;50.716;7.086;2024-03-08T07:47:08;100223.53;;;5.37;100.00
32131;BME280;18639;50.716;7.086;2024-03-08T07:49:35;100221.19;;;5.70;100.00
32131;BME280;18639;50.716;7.086;2024-03-08T07:52:00;100195.66;;;5.67;98.75
32131;BME280;18639;50.716;7.086;2024-03-08T07:54:26;100200.91;;;6.01;100.00
32131;BME280;18639;50.716;7.086;2024-03-08T07:56:51;100185.31;;;6.23;100.00
32131;BME280;18639;50.716;7.086;2024-03-08T07:59:18;100172.47;;;6.23;95.30
32131;BME280;18639;50.716;7.086;2024-03-08T08:01:43;100180.06;;;6.42;94.20
32131;BME280;18639;50.716;7.086;2024-03-08T08:04:10;100196.81;;;6.66;93.75
32131;BME280;18639;50.716;7.086;2024-03-08T08:06:38;100196.78;;;6.83;93.23
32131;BME280;18639;50.716;7.086;2024-03-08T08:09:06;100192.94;;;7.07;94.18
32131;BME280;18639;50.716;7.086;2024-03-08T08:11:35;100183.09;;;7.15;92.68
32131;BME280;18639;50.716;7.086;2024-03-08T08:14:00;100194.22;;;7.32;91.40
32131;BME280;18639;50.716;7.086;2024-03-08T08:16:25;100182.84;;;7.51;90.25
32131;BME280;18639;50.716;7.086;2024-03-08T08:18:51;100164.09;;;7.49;88.79
32131;BME280;18639;50.716;7.086;2024-03-08T08:21:18;100157.56;;;7.44;85.47
32131;BME280;18639;50.716;7.086;2024-03-08T08:23:43;100164.00;;;7.67;87.67
32131;BME280;18639;50.716;7.086;2024-03-08T08:26:10;100148.75;;;7.64;86.79
32131;BME280;18639;50.716;7.086;2024-03-08T08:28:36;100165.34;;;8.03;84.93
32131;BME280;18639;50.716;7.086;2024-03-08T08:31:01;100134.69;;;8.29;86.50
32131;BME280;18639;50.716;7.086;2024-03-08T08:33:29;100133.84;;;8.58;82.90
32131;BME280;18639;50.716;7.086;2024-03-08T08:35:54;100116.72;;;8.71;78.30
32131;BME280;18639;50.716;7.086;2024-03-08T08:38:20;100129.78;;;8.40;78.32
32131;BME280;18639;50.716;7.086;2024-03-08T08:40:45;100133.56;;;8.77;79.17
32131;BME280;18639;50.716;7.086;2024-03-08T08:43:15;100113.88;;;8.90;76.69
32131;BME280;18639;50.716;7.086;2024-03-08T08:45:40;100120.97;;;9.54;77.98
32131;BME280;18639;50.716;7.086;2024-03-08T08:48:06;100125.47;;;10.17;73.77
32131;BME280;18639;50.716;7.086;2024-03-08T08:50:32;100111.44;;;10.59;71.04
32131;BME280;18639;50.716;7.086;2024-03-08T08:52:57;100137.34;;;11.32;68.78
32131;BME280;18639;50.716;7.086;2024-03-08T08:55:46;100096.03;;;11.54;63.54
32131;BME280;18639;50.716;7.086;2024-03-08T08:58:15;100061.13;;;11.60;60.98
32131;BME280;18639;50.716;7.086;2024-03-08T09:00:42;100122.38;;;12.64;60.36
32131;BME280;18639;50.716;7.086;2024-03-08T09:03:10;100090.75;;;12.14;57.23
32131;BME280;18639;50.716;7.086;2024-03-08T09:05:37;100091.22;;;13.08;57.03
32131;BME280;18639;50.716;7.086;2024-03-08T09:08:02;100087.44;;;13.24;54.43
32131;BME280;18639;50.716;7.086;2024-03-08T09:10:30;100061.53;;;14.07;54.50
32131;BME280;18639;50.716;7.086;2024-03-08T09:12:56;100107.94;;;14.93;52.94
32131;BME280;18639;50.716;7.086;2024-03-08T09:15:33;100092.63;;;15.09;48.66
32131;BME280;18639;50.716;7.086;2024-03-08T09:18:10;100048.59;;;14.77;49.71
32131;BME280;18639;50.716;7.086;2024-03-08T09:20:35;100101.69;;;15.24;47.97
32131;BME280;18639;50.716;7.086;2024-03-08T09:23:07;100029.38;;;15.37;47.95
32131;BME280;18639;50.716;7.086;2024-03-08T09:25:35;100060.34;;;15.31;45.67
32131;BME280;18639;50.716;7.086;2024-03-08T09:28:00;100034.84;;;15.73;46.74
32131;BME280;18639;50.716;7.086;2024-03-08T09:30:31;100092.63;;;14.99;45.35
32131;BME280;18639;50.716;7.086;2024-03-08T09:33:00;100040.50;;;15.58;47.09
32131;BME280;18639;50.716;7.086;2024-03-08T09:35:25;100034.59;;;15.37;44.45
32131;BME280;18639;50.716;7.086;2024-03-08T09:37:51;100044.59;;;16.27;44.54
32131;BME280;18639;50.716;7.086;2024-03-08T09:40:49;100050.34;;;16.30;43.95
32131;BME280;18639;50.716;7.086;2024-03-08T09:43:39;99998.06;;;16.32;43.34
32131;BME280;18639;50.716;7.086;2024-03-08T09:46:07;100044.34;;;16.84;43.77
32131;BME280;18639;50.716;7.086;2024-03-08T09:48:35;100046.88;;;15.93;42.79
32131;BME280;18639;50.716;7.086;2024-03-08T09:51:13;100062.91;;;15.98;42.94
32131;BME280;18639;50.716;7.086;2024-03-08T09:53:41;100062.81;;;15.90;43.64
32131;BME280;18639;50.716;7.086;2024-03-08T09:56:08;99965.91;;;15.57;43.75
32131;BME280;18639;50.716;7.086;2024-03-08T09:58:33;100033.41;;;15.97;42.66
32131;BME280;18639;50.716;7.086;2024-03-08T10:01:01;100025.75;;;15.96;43.30
32131;BME280;18639;50.716;7.086;2024-03-08T10:03:46;100037.19;;;15.37;44.40
32131;BME280;18639;50.716;7.086;2024-03-08T10:06:13;100019.38;;;15.62;45.03
32131;BME280;18639;50.716;7.086;2024-03-08T10:08:45;100039.13;;;15.54;45.05
32131;BME280;18639;50.716;7.086;2024-03-08T10:11:13;100033.66;;;14.69;44.91
32131;BME280;18639;50.716;7.086;2024-03-08T10:13:39;100016.16;;;14.91;46.24
32131;BME280;18639;50.716;7.086;2024-03-08T10:16:06;99999.56;;;14.63;43.85
32131;BME280;18639;50.716;7.086;2024-03-08T10:18:34;99974.56;;;14.11;45.43
32131;BME280;18639;50.716;7.086;2024-03-08T10:21:05;99986.16;;;14.67;45.33
32131;BME280;18639;50.716;7.086;2024-03-08T10:23:32;99974.28;;;14.94;46.09
32131;BME280;18639;50.716;7.086;2024-03-08T10:26:09;99982.09;;;15.32;45.20
32131;BME280;18639;50.716;7.086;2024-03-08T10:28:34;99983.72;;;15.43;44.14
32131;BME280;18639;50.716;7.086;2024-03-08T10:31:16;100004.78;;;14.63;43.34
32131;BME280;18639;50.716;7.086;2024-03-08T10:33:48;99977.97;;;14.02;44.31
32131;BME280;18639;50.716;7.086;2024-03-08T10:36:16;99973.03;;;13.99;45.71
32131;BME280;18639;50.716;7.086;2024-03-08T10:38:43;100012.59;;;14.12;45.51
32131;BME280;18639;50.716;7.086;2024-03-08T10:41:21;99997.25;;;13.78;46.24
32131;BME280;18639;50.716;7.086;2024-03-08T10:44:10;99932.38;;;13.37;46.15
32131;BME280;18639;50.716;7.086;2024-03-08T10:49:30;99971.75;;;13.83;47.45
32131;BME280;18639;50.716;7.086;2024-03-08T10:52:02;99970.28;;;13.49;48.55
32131;BME280;18639;50.716;7.086;2024-03-08T10:54:29;99970.25;;;12.53;47.70
32131;BME280;18639;50.716;7.086;2024-03-08T10:56:57;99941.22;;;12.28;48.62
32131;BME280;18639;50.716;7.086;2024-03-08T10:59:23;99963.59;;;12.06;50.43
32131;BME280;18639;50.716;7.086;2024-03-08T11:01:52;99978.28;;;11.84;50.69
32131;BME280;18639;50.716;7.086;2024-03-08T11:04:33;99963.28;;;11.54;51.69
32131;BME280;18639;50.716;7.086;2024-03-08T11:07:03;99972.25;;;11.26;52.96
32131;BME280;18639;50.716;7.086;2024-03-08T11:09:35;99966.75;;;11.07;54.23
32131;BME280;18639;50.716;7.086;2024-03-08T11:14:51;99959.66;;;10.37;53.51
32131;BME280;18639;50.716;7.086;2024-03-08T11:17:40;99940.91;;;10.35;53.85
32131;BME280;18639;50.716;7.086;2024-03-08T11:20:15;99953.31;;;10.54;55.42
32131;BME280;18639;50.716;7.086;2024-03-08T11:22:48;99954.72;;;10.47;56.44
32131;BME280;18639;50.716;7.086;2024-03-08T11:25:36;99944.88;;;10.52;57.30
32131;BME280;18639;50.716;7.086;2024-03-08T11:28:13;99931.22;;;10.50;57.59
32131;BME280;18639;50.716;7.086;2024-03-08T11:33:24;99923.59;;;10.48;56.58
32131;BME280;18639;50.716;7.086;2024-03-08T11:35:51;99916.06;;;10.45;57.26
32131;BME280;18639;50.716;7.086;2024-03-08T11:38:17;99906.09;;;10.28;55.65
32131;BME280;18639;50.716;7.086;2024-03-08T11:40:46;99913.09;;;10.39;57.07
32131;BME280;18639;50.716;7.086;2024-03-08T11:43:15;99917.03;;;10.32;55.42
32131;BME280;18639;50.716;7.086;2024-03-08T11:45:41;99910.44;;;10.28;55.19
32131;BME280;18639;50.716;7.086;2024-03-08T11:48:06;99903.19;;;10.33;56.75
32131;BME280;18639;50.716;7.086;2024-03-08T11:50:32;99891.88;;;10.46;56.31
32131;BME280;18639;50.716;7.086;2024-03-08T11:53:02;99872.81;;;10.36;57.88
32131;BME280;18639;50.716;7.086;2024-03-08T11:55:28;99926.31;;;10.34;55.11
32131;BME280;18639;50.716;7.086;2024-03-08T11:58:04;99869.09;;;10.15;56.51
32131;BME280;18639;50.716;7.086;2024-03-08T12:00:30;99907.00;;;10.40;56.17
32131;BME280;18639;50.716;7.086;2024-03-08T12:03:05;99872.28;;;10.31;56.08
32131;BME280;18639;50.716;7.086;2024-03-08T12:05:31;99887.84;;;10.42;55.33
32131;BME280;18639;50.716;7.086;2024-03-08T12:08:00;99894.09;;;10.27;55.98
32131;BME280;18639;50.716;7.086;2024-03-08T12:10:34;99825.72;;;9.96;56.44
32131;BME280;18639;50.716;7.086;2024-03-08T12:13:03;99864.41;;;10.45;57.75
32131;BME280;18639;50.716;7.086;2024-03-08T12:15:31;99876.56;;;10.56;55.10
32131;BME280;18639;50.716;7.086;2024-03-08T12:17:59;99878.06;;;10.59;56.26
32131;BME280;18639;50.716;7.086;2024-03-08T12:20:35;99854.28;;;10.42;55.77
32131;BME280;18639;50.716;7.086;2024-03-08T12:23:04;99838.56;;;10.22;54.05
32131;BME280;18639;50.716;7.086;2024-03-08T12:25:31;99872.06;;;10.47;55.33
32131;BME280;18639;50.716;7.086;2024-03-08T12:28:20;99801.22;;;10.02;54.62
32131;BME280;18639;50.716;7.086;2024-03-08T12:30:51;99809.84;;;10.13;54.84
32131;BME280;18639;50.716;7.086;2024-03-08T12:33:25;99848.81;;;10.47;55.24
32131;BME280;18639;50.716;7.086;2024-03-08T12:35:57;99767.44;;;10.05;56.53
32131;BME280;18639;50.716;7.086;2024-03-08T12:38:28;99860.72;;;10.61;55.78
32131;BME280;18639;50.716;7.086;2024-03-08T12:41:00;99820.00;;;10.40;55.43
32131;BME280;18639;50.716;7.086;2024-03-08T12:43:26;99802.34;;;10.34;56.20
32131;BME280;18639;50.716;7.086;2024-03-08T12:45:53;99834.44;;;10.67;56.81
32131;BME280;18639;50.716;7.086;2024-03-08T12:48:19;99821.72;;;10.64;56.05
32131;BME280;18639;50.716;7.086;2024-03-08T12:50:46;99810.06;;;10.58;55.26
32131;BME280;18639;50.716;7.086;2024-03-08T12:53:13;99826.34;;;10.71;54.52
32131;BME280;18639;50.716;7.086;2024-03-08T12:55:39;99821.16;;;10.71;54.02
32131;BME280;18639;50.716;7.086;2024-03-08T12:58:05;99815.16;;;10.71;55.90
32131;BME280;18639;50.716;7.086;2024-03-08T13:00:33;99814.50;;;10.80;53.88
32131;BME280;18639;50.716;7.086;2024-03-08T13:03:04;99744.63;;;10.35;54.52
32131;BME280;18639;50.716;7.086;2024-03-08T13:05:31;99798.69;;;10.61;53.95